createdAt,value
2018-03-01T00:00:58.378Z,25.30
2018-03-01T00:01:58.343Z,23.30
2018-03-01T00:02:58.306Z,24.20
2018-03-01T00:03:58.224Z,27.30
2018-03-01T00:04:58.181Z,26.20
2018-03-01T00:05:58.136Z,23.50
2018-03-01T00:06:58.081Z,25.90
2018-03-01T00:07:58.044Z,24.60
2018-03-01T00:08:57.975Z,24.70
2018-03-01T00:09:57.930Z,24.10
2018-03-01T00:10:57.873Z,23.10
2018-03-01T00:11:57.832Z,24.00
2018-03-01T00:12:57.810Z,23.70
2018-03-01T00:13:57.732Z,25.80
2018-03-01T00:14:57.676Z,23.20
2018-03-01T00:15:57.638Z,23.50
2018-03-01T00:16:57.582Z,25.40
2018-03-01T00:17:57.547Z,23.70
2018-03-01T00:18:57.480Z,24.00
2018-03-01T00:19:57.424Z,26.60
2018-03-01T00:20:57.373Z,24.40
2018-03-01T00:21:57.319Z,24.10
2018-03-01T00:22:57.300Z,22.90
2018-03-01T00:23:57.227Z,23.50
2018-03-01T00:24:57.178Z,22.30
2018-03-01T00:25:57.124Z,26.00
2018-03-01T00:26:57.080Z,25.20
2018-03-01T00:27:57.044Z,23.40
2018-03-01T00:28:56.972Z,25.30
2018-03-01T00:29:56.917Z,26.50
2018-03-01T00:30:56.886Z,25.20
2018-03-01T00:31:56.820Z,24.00
2018-03-01T00:32:56.808Z,22.80
2018-03-01T00:33:56.720Z,24.00
2018-03-01T00:34:56.674Z,23.90
2018-03-01T00:35:56.616Z,24.20
2018-03-01T00:36:56.575Z,22.90
2018-03-01T00:37:56.528Z,25.70
2018-03-01T00:38:56.531Z,24.20
2018-03-01T00:39:56.431Z,24.70
2018-03-01T00:40:56.372Z,24.50
2018-03-01T00:41:56.320Z,24.70
2018-03-01T00:42:56.273Z,23.40
2018-03-01T00:43:56.241Z,23.30
2018-03-01T00:44:56.168Z,23.50
2018-03-01T00:45:56.128Z,24.50
2018-03-01T00:46:56.097Z,23.40
2018-03-01T00:47:56.026Z,25.30
2018-03-01T00:48:56.011Z,25.90
2018-03-01T00:49:55.930Z,23.70
2018-03-01T00:50:55.864Z,24.00
2018-03-01T00:51:55.824Z,23.40
2018-03-01T00:52:55.772Z,26.00
2018-03-01T00:53:55.750Z,24.80
2018-03-01T00:54:55.665Z,23.10
2018-03-01T00:55:55.620Z,22.50
2018-03-01T00:56:55.569Z,28.30
2018-03-01T00:57:55.520Z,26.40
2018-03-01T00:58:55.489Z,22.50
2018-03-01T00:59:55.422Z,23.70
2018-03-01T01:00:55.371Z,24.10
2018-03-01T01:01:55.326Z,24.80
2018-03-01T01:02:55.269Z,25.30
2018-03-01T01:03:55.217Z,24.40
2018-03-01T01:04:55.192Z,24.50
2018-03-01T01:05:55.120Z,24.40
2018-03-01T01:06:55.064Z,24.30
2018-03-01T01:07:55.019Z,22.50
2018-03-01T01:08:54.967Z,22.20
2018-03-01T01:09:54.944Z,26.40
2018-03-01T01:10:54.869Z,24.00
2018-03-01T01:11:54.816Z,23.60
2018-03-01T01:12:54.762Z,24.20
2018-03-01T01:13:54.717Z,22.60
2018-03-01T01:14:54.698Z,25.90
2018-03-01T01:15:54.625Z,24.40
2018-03-01T01:16:54.570Z,23.20
2018-03-01T01:17:54.510Z,24.40
2018-03-01T01:18:54.469Z,25.00
2018-03-01T01:19:54.437Z,26.60
2018-03-01T01:20:54.370Z,23.20
2018-03-01T01:21:54.319Z,25.20
2018-03-01T01:22:54.263Z,24.70
2018-03-01T01:23:54.210Z,25.20
2018-03-01T01:24:54.171Z,24.60
2018-03-01T01:25:54.144Z,24.60
2018-03-01T01:26:54.060Z,25.20
2018-03-01T01:27:54.021Z,24.60
2018-03-01T01:28:53.961Z,25.40
2018-03-01T01:29:53.911Z,24.00
2018-03-01T01:30:53.905Z,22.50
2018-03-01T01:31:53.820Z,23.40
2018-03-01T01:32:53.762Z,25.50
2018-03-01T01:33:53.720Z,22.80
2018-03-01T01:34:53.665Z,23.80
2018-03-01T01:35:53.640Z,23.30
2018-03-01T01:36:53.575Z,25.30
2018-03-01T01:37:53.522Z,25.90
2018-03-01T01:38:53.460Z,24.70
2018-03-01T01:39:53.411Z,24.40
2018-03-01T01:40:53.409Z,24.20
2018-03-01T01:41:53.315Z,27.10
2018-03-01T01:42:53.263Z,23.00
2018-03-01T01:43:53.293Z,25.10
2018-03-01T01:44:53.157Z,23.70
2018-03-01T01:45:53.132Z,25.90
2018-03-01T01:46:53.063Z,21.50
2018-03-01T01:47:53.048Z,24.10
2018-03-01T01:48:52.962Z,23.50
2018-03-01T01:49:52.924Z,24.20
2018-03-01T01:50:52.906Z,22.40
2018-03-01T01:51:52.814Z,23.20
2018-03-01T01:52:52.757Z,23.40
2018-03-01T01:54:03.956Z,23.40
2018-03-01T01:54:52.660Z,23.00
2018-03-01T01:55:52.641Z,23.20
2018-03-01T01:56:52.562Z,26.70
2018-03-01T01:57:52.537Z,22.00
2018-03-01T01:58:52.459Z,24.10
2018-03-01T01:59:52.403Z,24.70
2018-03-01T02:00:52.362Z,23.00
2018-03-01T02:01:52.334Z,21.30
2018-03-01T02:02:52.270Z,23.10
2018-03-01T02:03:52.214Z,22.70
2018-03-01T02:04:52.180Z,23.30
2018-03-01T02:05:52.109Z,23.20
2018-03-01T02:06:52.087Z,26.10
2018-03-01T02:07:52.013Z,22.50
2018-03-01T02:08:51.953Z,26.00
2018-03-01T02:09:51.906Z,23.40
2018-03-01T02:10:51.858Z,22.10
2018-03-01T02:11:51.840Z,24.40
2018-03-01T02:12:51.764Z,22.30
2018-03-01T02:13:51.711Z,22.60
2018-03-01T02:14:51.653Z,22.90
2018-03-01T02:15:51.605Z,24.50
2018-03-01T02:16:51.585Z,24.70
2018-03-01T02:17:51.508Z,22.20
2018-03-01T02:18:51.487Z,23.30
2018-03-01T02:19:51.406Z,22.20
2018-03-01T02:20:51.360Z,23.70
2018-03-01T02:21:51.354Z,24.10
2018-03-01T02:22:51.258Z,24.10
2018-03-01T02:23:51.205Z,22.20
2018-03-01T02:24:51.155Z,22.20
2018-03-01T02:25:51.100Z,22.20
2018-03-01T02:26:51.057Z,23.00
2018-03-01T02:27:51.025Z,22.80
2018-03-01T02:28:50.951Z,23.10
2018-03-01T02:29:50.909Z,22.30
2018-03-01T02:30:50.854Z,22.00
2018-03-01T02:31:50.806Z,24.10
2018-03-01T02:32:50.778Z,22.30
2018-03-01T02:33:50.709Z,23.10
2018-03-01T02:34:50.664Z,22.70
2018-03-01T02:35:50.601Z,22.60
2018-03-01T02:36:50.565Z,24.30
2018-03-01T02:37:50.534Z,22.80
2018-03-01T02:38:50.470Z,23.20
2018-03-01T02:39:50.402Z,23.40
2018-03-01T02:40:50.357Z,22.80
2018-03-01T02:41:50.295Z,23.50
2018-03-01T02:42:50.292Z,23.20
2018-03-01T02:43:50.212Z,21.80
2018-03-01T02:44:50.154Z,21.80
2018-03-01T02:45:50.096Z,22.50
2018-03-01T02:46:50.074Z,22.40
2018-03-01T02:47:50.012Z,23.60
2018-03-01T02:48:49.968Z,24.60
2018-03-01T02:49:49.908Z,21.10
2018-03-01T02:50:49.850Z,21.90
2018-03-01T02:51:49.802Z,23.60
2018-03-01T02:52:49.741Z,22.60
2018-03-01T02:53:49.714Z,23.10
2018-03-01T02:54:49.647Z,21.20
2018-03-01T02:55:49.594Z,23.90
2018-03-01T02:56:49.543Z,21.30
2018-03-01T02:57:49.498Z,22.80
2018-03-01T02:58:49.474Z,23.30
2018-03-01T02:59:49.435Z,20.80
2018-03-01T03:00:49.346Z,21.80
2018-03-01T03:01:49.298Z,22.30
2018-03-01T03:02:49.249Z,24.40
2018-03-01T03:03:49.233Z,20.90
2018-03-01T03:04:49.144Z,23.80
2018-03-01T03:05:49.100Z,25.20
2018-03-01T03:06:49.038Z,24.10
2018-03-01T03:07:48.994Z,24.30
2018-03-01T03:08:48.968Z,22.80
2018-03-01T03:09:48.915Z,23.40
2018-03-01T03:10:48.841Z,24.90
2018-03-01T03:11:48.791Z,23.00
2018-03-01T03:12:48.760Z,24.20
2018-03-01T03:13:48.687Z,24.30
2018-03-01T03:14:48.657Z,21.70
2018-03-01T03:15:48.588Z,22.80
2018-03-01T03:16:48.539Z,22.80
2018-03-01T03:17:48.493Z,24.10
2018-03-01T03:18:48.464Z,23.70
2018-03-01T03:19:48.414Z,23.10
2018-03-01T03:20:48.334Z,23.50
2018-03-01T03:21:48.286Z,23.00
2018-03-01T03:22:48.235Z,23.80
2018-03-01T03:23:48.188Z,24.70
2018-03-01T03:24:48.164Z,22.80
2018-03-01T03:25:48.103Z,23.50
2018-03-01T03:26:48.035Z,22.70
2018-03-01T03:27:47.978Z,23.30
2018-03-01T03:28:47.938Z,24.90
2018-03-01T03:29:47.918Z,24.40
2018-03-01T03:30:47.835Z,23.30
2018-03-01T03:31:47.802Z,21.50
2018-03-01T03:32:47.745Z,22.60
2018-03-01T03:33:47.686Z,24.00
2018-03-01T03:34:47.632Z,23.30
2018-03-01T03:35:47.630Z,23.30
2018-03-01T03:36:47.536Z,23.30
2018-03-01T03:37:47.481Z,25.40
2018-03-01T03:38:47.434Z,21.80
2018-03-01T03:39:47.380Z,24.30
2018-03-01T03:40:47.357Z,23.70
2018-03-01T03:41:47.277Z,24.70
2018-03-01T03:42:47.228Z,23.10
2018-03-01T03:43:47.179Z,23.80
2018-03-01T03:44:47.131Z,27.10
2018-03-01T03:45:47.132Z,24.80
2018-03-01T03:46:47.035Z,21.90
2018-03-01T03:47:46.983Z,22.20
2018-03-01T03:48:46.934Z,22.50
2018-03-01T03:49:46.876Z,23.80
2018-03-01T03:50:46.849Z,22.20
2018-03-01T03:51:46.783Z,22.50
2018-03-01T03:52:46.735Z,22.60
2018-03-01T03:53:46.684Z,23.20
2018-03-01T03:54:46.640Z,22.60
2018-03-01T03:55:46.614Z,23.70
2018-03-01T03:56:46.529Z,23.80
2018-03-01T03:57:46.479Z,24.00
2018-03-01T03:58:46.437Z,22.80
2018-03-01T03:59:46.385Z,25.40
2018-03-01T04:00:46.328Z,24.80
2018-03-01T04:01:46.302Z,22.30
2018-03-01T04:02:46.231Z,24.70
2018-03-01T04:03:46.182Z,23.90
2018-03-01T04:04:46.122Z,23.70
2018-03-01T04:05:46.077Z,22.90
2018-03-01T04:06:46.054Z,23.50
2018-03-01T04:07:46.009Z,24.60
2018-03-01T04:08:45.925Z,23.80
2018-03-01T04:09:45.873Z,24.10
2018-03-01T04:10:45.843Z,23.30
2018-03-01T04:11:45.806Z,23.40
2018-03-01T04:12:45.727Z,23.60
2018-03-01T04:13:45.671Z,24.20
2018-03-01T04:14:45.624Z,22.70
2018-03-01T04:15:45.583Z,25.60
2018-03-01T04:16:45.547Z,26.00
2018-03-01T04:17:45.485Z,24.10
2018-03-01T04:18:45.426Z,23.40
2018-03-01T04:19:45.380Z,24.00
2018-03-01T04:20:45.329Z,22.00
2018-03-01T04:21:45.309Z,22.50
2018-03-01T04:22:45.229Z,23.80
2018-03-01T04:23:45.178Z,25.60
2018-03-01T04:24:45.122Z,23.40
2018-03-01T04:25:45.072Z,23.60
2018-03-01T04:26:45.027Z,23.70
2018-03-01T04:27:44.998Z,23.80
2018-03-01T04:28:44.923Z,24.00
2018-03-01T04:29:44.879Z,24.00
2018-03-01T04:30:44.823Z,21.30
2018-03-01T04:31:44.770Z,23.60
2018-03-01T04:32:44.747Z,27.30
2018-03-01T04:33:44.676Z,24.20
2018-03-01T04:34:44.628Z,23.60
2018-03-01T04:35:44.582Z,23.00
2018-03-01T04:36:44.537Z,22.50
2018-03-01T04:37:44.493Z,23.60
2018-03-01T04:38:44.443Z,23.00
2018-03-01T04:39:44.366Z,22.90
2018-03-01T04:40:44.323Z,25.30
2018-03-01T04:41:44.271Z,24.00
2018-03-01T04:42:44.254Z,24.60
2018-03-01T04:43:44.169Z,21.80
2018-03-01T04:44:44.130Z,25.90
2018-03-01T04:45:44.068Z,26.80
2018-03-01T04:46:44.021Z,24.20
2018-03-01T04:47:43.970Z,23.20
2018-03-01T04:48:43.942Z,23.70
2018-03-01T04:49:43.871Z,22.70
2018-03-01T04:50:43.825Z,23.90
2018-03-01T04:51:43.772Z,23.90
2018-03-01T04:52:43.721Z,23.00
2018-03-01T04:53:43.695Z,25.90
2018-03-01T04:54:43.629Z,24.40
2018-03-01T04:55:43.592Z,24.10
2018-03-01T04:56:43.528Z,22.80
2018-03-01T04:57:43.479Z,23.30
2018-03-01T04:58:43.442Z,24.20
2018-03-01T04:59:43.370Z,23.00
2018-03-01T05:00:43.325Z,23.00
2018-03-01T05:01:43.277Z,24.10
2018-03-01T05:02:43.219Z,24.70
2018-03-01T05:03:43.204Z,23.70
2018-03-01T05:04:43.125Z,22.80
2018-03-01T05:05:43.077Z,26.40
2018-03-01T05:06:43.020Z,27.70
2018-03-01T05:07:42.966Z,23.80
2018-03-01T05:08:42.944Z,23.90
2018-03-01T05:09:42.866Z,23.40
2018-03-01T05:10:42.827Z,22.70
2018-03-01T05:11:42.780Z,24.40
2018-03-01T05:12:42.718Z,24.00
2018-03-01T05:13:42.670Z,25.30
2018-03-01T05:14:42.652Z,26.40
2018-03-01T05:15:42.577Z,22.90
2018-03-01T05:16:42.537Z,23.40
2018-03-01T05:17:42.508Z,24.90
2018-03-01T05:18:42.423Z,24.90
2018-03-01T05:19:42.388Z,23.20
2018-03-01T05:20:42.318Z,22.30
2018-03-01T05:21:42.265Z,24.00
2018-03-01T05:22:42.235Z,23.40
2018-03-01T05:23:42.171Z,22.50
2018-03-01T05:24:42.147Z,23.20
2018-03-01T05:25:42.066Z,25.10
2018-03-01T05:26:42.863Z,26.20
2018-03-01T05:27:41.967Z,23.10
2018-03-01T05:28:42.864Z,22.80
2018-03-01T05:29:41.897Z,25.10
2018-03-01T05:30:41.820Z,25.00
2018-03-01T05:31:41.766Z,23.60
2018-03-01T05:32:41.736Z,23.40
2018-03-01T05:33:41.682Z,23.80
2018-03-01T05:34:41.655Z,23.90
2018-03-01T05:35:41.567Z,21.50
2018-03-01T05:36:41.518Z,23.00
2018-03-01T05:37:41.471Z,24.60
2018-03-01T05:38:41.424Z,24.80
2018-03-01T05:39:41.371Z,23.70
2018-03-01T05:40:41.353Z,23.90
2018-03-01T05:41:41.270Z,23.90
2018-03-01T05:42:41.238Z,24.20
2018-03-01T05:43:41.186Z,23.70
2018-03-01T05:44:41.118Z,24.20
2018-03-01T05:45:41.104Z,25.60
2018-03-01T05:46:41.024Z,21.70
2018-03-01T05:47:40.974Z,24.20
2018-03-01T05:48:40.921Z,23.20
2018-03-01T05:49:40.881Z,24.80
2018-03-01T05:50:40.847Z,23.70
2018-03-01T05:51:40.775Z,22.90
2018-03-01T05:52:40.720Z,24.70
2018-03-01T05:53:40.689Z,24.60
2018-03-01T05:54:40.622Z,24.50
2018-03-01T05:55:40.612Z,22.60
2018-03-01T05:56:40.526Z,23.20
2018-03-01T05:57:40.470Z,23.40
2018-03-01T05:58:40.421Z,22.90
2018-03-01T05:59:40.389Z,23.40
2018-03-01T06:00:40.371Z,25.00
2018-03-01T06:01:40.280Z,25.10
2018-03-01T06:02:40.237Z,25.60
2018-03-01T06:03:40.182Z,26.40
2018-03-01T06:04:40.123Z,24.90
2018-03-01T06:05:40.116Z,23.00
2018-03-01T06:06:40.042Z,21.10
2018-03-01T06:07:39.976Z,23.50
2018-03-01T06:08:39.927Z,24.30
2018-03-01T06:09:39.910Z,23.00
2018-03-01T06:10:39.819Z,25.20
2018-03-01T06:11:39.792Z,22.70
2018-03-01T06:12:39.723Z,23.10
2018-03-01T06:13:39.674Z,24.90
2018-03-01T06:14:39.634Z,22.10
2018-03-01T06:15:39.588Z,24.00
2018-03-01T06:16:39.545Z,24.90
2018-03-01T06:17:39.475Z,22.20
2018-03-01T06:18:39.429Z,22.90
2018-03-01T06:19:39.378Z,22.60
2018-03-01T06:20:39.331Z,23.20
2018-03-01T06:21:39.304Z,25.80
2018-03-01T06:22:39.229Z,22.70
2018-03-01T06:23:39.177Z,24.70
2018-03-01T06:24:39.128Z,22.20
2018-03-01T06:25:39.073Z,23.30
2018-03-01T06:26:39.058Z,21.70
2018-03-01T06:27:38.977Z,23.80
2018-03-01T06:28:38.933Z,24.40
2018-03-01T06:29:38.875Z,22.00
2018-03-01T06:30:38.825Z,22.70
2018-03-01T06:31:38.780Z,21.80
2018-03-01T06:32:38.748Z,23.30
2018-03-01T06:33:38.714Z,22.50
2018-03-01T06:34:38.636Z,23.00
2018-03-01T06:35:38.584Z,23.60
2018-03-01T06:36:38.563Z,21.30
2018-03-01T06:37:38.502Z,23.90
2018-03-01T06:38:38.445Z,20.80
2018-03-01T06:39:38.398Z,23.40
2018-03-01T06:40:38.330Z,22.70
2018-03-01T06:41:38.277Z,22.20
2018-03-01T06:42:38.272Z,23.60
2018-03-01T06:43:38.189Z,26.30
2018-03-01T06:44:38.129Z,23.70
2018-03-01T06:45:38.087Z,24.30
2018-03-01T06:46:38.030Z,25.20
2018-03-01T06:47:38.009Z,22.20
2018-03-01T06:48:37.932Z,24.00
2018-03-01T06:49:37.884Z,24.60
2018-03-01T06:50:37.831Z,22.20
2018-03-01T06:51:37.787Z,24.40
2018-03-01T06:52:37.749Z,22.60
2018-03-01T06:53:37.706Z,23.80
2018-03-01T06:54:37.636Z,23.50
2018-03-01T06:55:37.586Z,22.90
2018-03-01T06:56:37.543Z,23.60
2018-03-01T06:57:37.489Z,23.20
2018-03-01T06:58:37.462Z,21.80
2018-03-01T06:59:37.387Z,24.30
2018-03-01T07:00:37.339Z,24.20
2018-03-01T07:01:37.284Z,23.40
2018-03-01T07:02:37.235Z,22.40
2018-03-01T07:03:37.214Z,23.00
2018-03-01T07:04:37.142Z,23.50
2018-03-01T07:05:37.093Z,24.80
2018-03-01T07:06:37.042Z,24.50
2018-03-01T07:07:37.008Z,21.80
2018-03-01T07:08:36.961Z,23.90
2018-03-01T07:09:36.895Z,22.70
2018-03-01T07:10:36.838Z,23.80
2018-03-01T07:11:36.831Z,22.30
2018-03-01T07:12:36.745Z,22.70
2018-03-01T07:13:36.726Z,22.30
2018-03-01T07:14:36.644Z,20.90
2018-03-01T07:15:36.598Z,23.90
2018-03-01T07:16:36.547Z,24.90
2018-03-01T07:17:36.504Z,21.40
2018-03-01T07:18:36.445Z,22.90
2018-03-01T07:19:36.425Z,22.70
2018-03-01T07:20:36.345Z,20.10
2018-03-01T07:21:36.303Z,21.50
2018-03-01T07:22:36.296Z,20.20
2018-03-01T07:23:36.245Z,21.60
2018-03-01T07:24:36.149Z,21.00
2018-03-01T07:25:36.101Z,19.70
2018-03-01T07:26:36.050Z,23.50
2018-03-01T07:27:36.010Z,21.10
2018-03-01T07:28:35.975Z,19.40
2018-03-01T07:29:35.918Z,22.90
2018-03-01T07:30:35.865Z,23.30
2018-03-01T07:31:35.813Z,23.40
2018-03-01T07:32:35.768Z,21.00
2018-03-01T07:33:35.748Z,21.20
2018-03-01T07:34:35.680Z,21.50
2018-03-01T07:35:35.619Z,22.50
2018-03-01T07:36:35.562Z,23.70
2018-03-01T07:37:35.525Z,24.60
2018-03-01T07:38:35.497Z,21.60
2018-03-01T07:39:35.437Z,20.50
2018-03-01T07:40:35.374Z,21.40
2018-03-01T07:41:35.322Z,23.80
2018-03-01T07:42:35.278Z,19.90
2018-03-01T07:43:35.246Z,20.60
2018-03-01T07:44:35.207Z,20.50
2018-03-01T07:45:35.170Z,20.70
2018-03-01T07:46:35.091Z,21.10
2018-03-01T07:47:35.037Z,19.90
2018-03-01T07:48:34.986Z,20.30
2018-03-01T07:49:34.974Z,22.30
2018-03-01T07:50:34.891Z,21.50
2018-03-01T07:51:34.844Z,22.80
2018-03-01T07:52:34.806Z,21.00
2018-03-01T07:53:34.759Z,21.40
2018-03-01T07:54:34.726Z,22.60
2018-03-01T07:55:34.657Z,22.70
2018-03-01T07:56:34.623Z,22.70
2018-03-01T07:57:34.582Z,21.70
2018-03-01T07:58:34.513Z,21.70
2018-03-01T07:59:34.493Z,21.40
2018-03-01T08:00:34.422Z,20.60
2018-03-01T08:01:34.403Z,21.60
2018-03-01T08:02:34.335Z,20.80
2018-03-01T08:03:34.291Z,24.40
2018-03-01T08:04:34.268Z,21.60
2018-03-01T08:05:34.197Z,20.60
2018-03-01T08:06:34.146Z,19.80
2018-03-01T08:07:34.094Z,20.90
2018-03-01T08:08:34.056Z,21.60
2018-03-01T08:09:34.030Z,18.60
2018-03-01T08:10:33.952Z,20.30
2018-03-01T08:11:33.920Z,20.30
2018-03-01T08:12:33.867Z,21.90
2018-03-01T08:13:33.816Z,23.30
2018-03-01T08:14:33.775Z,20.10
2018-03-01T08:15:33.746Z,19.40
2018-03-01T08:16:33.674Z,22.10
2018-03-01T08:17:33.634Z,18.10
2018-03-01T08:18:33.588Z,21.50
2018-03-01T08:19:33.552Z,20.40
2018-03-01T08:20:33.515Z,19.80
2018-03-01T08:21:33.443Z,18.60
2018-03-01T08:22:33.392Z,20.10
2018-03-01T08:23:33.349Z,19.80
2018-03-01T08:24:33.304Z,18.20
2018-03-01T08:25:33.286Z,20.40
2018-03-01T08:26:33.206Z,20.20
2018-03-01T08:27:33.161Z,22.10
2018-03-01T08:28:33.111Z,23.30
2018-03-01T08:29:33.062Z,18.90
2018-03-01T08:30:33.012Z,19.00
2018-03-01T08:31:32.990Z,19.50
2018-03-01T08:32:32.916Z,19.60
2018-03-01T08:33:32.878Z,18.70
2018-03-01T08:34:32.833Z,20.40
2018-03-01T08:35:32.790Z,20.50
2018-03-01T08:36:32.755Z,20.90
2018-03-01T08:37:32.686Z,18.70
2018-03-01T08:38:32.631Z,18.40
2018-03-01T08:39:32.593Z,22.70
2018-03-01T08:40:32.545Z,18.60
2018-03-01T08:41:32.519Z,18.60
2018-03-01T08:42:32.451Z,20.20
2018-03-01T08:43:32.395Z,17.60
2018-03-01T08:44:32.352Z,19.70
2018-03-01T08:45:32.306Z,17.90
2018-03-01T08:46:32.277Z,19.10
2018-03-01T08:47:32.210Z,20.10
2018-03-01T08:48:32.161Z,17.50
2018-03-01T08:49:32.120Z,18.00
2018-03-01T08:50:32.068Z,17.60
2018-03-01T08:51:32.053Z,19.80
2018-03-01T08:52:31.979Z,19.20
2018-03-01T08:53:31.926Z,17.40
2018-03-01T08:54:31.887Z,18.80
2018-03-01T08:55:31.840Z,19.00
2018-03-01T08:56:31.796Z,18.60
2018-03-01T08:57:31.764Z,16.80
2018-03-01T08:58:31.709Z,17.80
2018-03-01T08:59:31.659Z,18.10
2018-03-01T09:00:31.628Z,18.00
2018-03-01T09:01:31.580Z,18.00
2018-03-01T09:02:31.556Z,18.90
2018-03-01T09:03:31.492Z,19.90
2018-03-01T09:04:31.443Z,17.60
2018-03-01T09:05:31.401Z,17.30
2018-03-01T09:06:31.354Z,17.80
2018-03-01T09:07:31.341Z,17.60
2018-03-01T09:08:31.274Z,18.10
2018-03-01T09:09:31.231Z,16.70
2018-03-01T09:10:31.195Z,18.40
2018-03-01T09:11:31.140Z,18.10
2018-03-01T09:12:31.143Z,16.70
2018-03-01T09:13:31.055Z,17.20
2018-03-01T09:14:31.010Z,16.50
2018-03-01T09:15:30.969Z,16.70
2018-03-01T09:16:30.928Z,17.70
2018-03-01T09:17:30.876Z,15.90
2018-03-01T09:18:30.871Z,14.60
2018-03-01T09:19:30.801Z,15.00
2018-03-01T09:20:30.781Z,16.10
2018-03-01T09:21:30.708Z,17.60
2018-03-01T09:22:30.670Z,17.00
2018-03-01T09:23:30.659Z,16.00
2018-03-01T09:24:30.586Z,16.00
2018-03-01T09:25:30.538Z,17.30
2018-03-01T09:26:30.508Z,13.30
2018-03-01T09:27:30.456Z,17.30
2018-03-01T09:28:30.441Z,14.50
2018-03-01T09:29:30.375Z,17.40
2018-03-01T09:30:30.405Z,16.10
2018-03-01T09:31:30.297Z,15.00
2018-03-01T09:32:30.254Z,16.60
2018-03-01T09:33:30.234Z,15.30
2018-03-01T09:34:30.168Z,15.40
2018-03-01T09:35:30.132Z,14.50
2018-03-01T09:36:30.086Z,14.80
2018-03-01T09:37:30.053Z,15.30
2018-03-01T09:38:30.038Z,14.60
2018-03-01T09:39:29.984Z,15.40
2018-03-01T09:40:29.932Z,15.20
2018-03-01T09:41:29.882Z,15.90
2018-03-01T09:42:29.842Z,15.90
2018-03-01T09:43:29.817Z,14.80
2018-03-01T09:44:29.753Z,14.20
2018-03-01T09:45:29.706Z,13.80
2018-03-01T09:46:29.665Z,18.50
2018-03-01T09:47:29.632Z,13.90
2018-03-01T09:48:29.612Z,14.10
2018-03-01T09:49:29.551Z,14.30
2018-03-01T09:50:29.508Z,15.50
2018-03-01T09:51:29.457Z,14.20
2018-03-01T09:52:29.416Z,13.80
2018-03-01T09:53:29.378Z,14.50
2018-03-01T09:54:29.350Z,15.00
2018-03-01T09:55:29.283Z,14.90
2018-03-01T09:56:29.247Z,15.10
2018-03-01T09:57:29.196Z,13.80
2018-03-01T09:58:29.188Z,14.90
2018-03-01T09:59:29.120Z,13.90
2018-03-01T10:00:29.096Z,16.90
2018-03-01T10:01:29.027Z,13.80
2018-03-01T10:02:29.031Z,14.10
2018-03-01T10:03:28.968Z,13.50
2018-03-01T10:04:28.926Z,14.40
2018-03-01T10:05:28.857Z,13.50
2018-03-01T10:06:28.816Z,13.70
2018-03-01T10:07:28.776Z,15.70
2018-03-01T10:08:28.742Z,13.00
2018-03-01T10:09:28.726Z,13.10
2018-03-01T10:10:28.661Z,15.50
2018-03-01T10:11:28.605Z,14.10
2018-03-01T10:12:28.580Z,13.30
2018-03-01T10:13:28.535Z,13.60
2018-03-01T10:14:28.513Z,11.60
2018-03-01T10:15:28.449Z,13.40
2018-03-01T10:16:28.412Z,12.50
2018-03-01T10:17:28.387Z,12.70
2018-03-01T10:18:28.319Z,11.00
2018-03-01T10:19:28.322Z,13.10
2018-03-01T10:20:28.265Z,14.30
2018-03-01T10:21:28.199Z,13.60
2018-03-01T10:22:28.169Z,11.70
2018-03-01T10:23:28.122Z,12.90
2018-03-01T10:24:28.132Z,13.00
2018-03-01T10:25:28.040Z,11.40
2018-03-01T10:26:28.004Z,11.90
2018-03-01T10:27:27.963Z,12.30
2018-03-01T10:28:27.928Z,13.20
2018-03-01T10:29:27.940Z,14.10
2018-03-01T10:30:27.837Z,12.10
2018-03-01T10:31:27.802Z,11.70
2018-03-01T10:32:27.769Z,9.70
2018-03-01T10:33:27.735Z,11.80
2018-03-01T10:34:27.683Z,10.90
2018-03-01T10:35:27.681Z,11.50
2018-03-01T10:36:27.608Z,11.40
2018-03-01T10:37:27.567Z,12.90
2018-03-01T10:38:27.529Z,13.00
2018-03-01T10:39:27.487Z,12.70
2018-03-01T10:40:27.474Z,12.30
2018-03-01T10:41:27.405Z,12.10
2018-03-01T10:42:27.361Z,14.70
2018-03-01T10:43:27.332Z,12.90
2018-03-01T10:44:27.290Z,16.50
2018-03-01T10:45:27.276Z,14.40
2018-03-01T10:46:27.210Z,11.70
2018-03-01T10:47:27.172Z,11.80
2018-03-01T10:48:27.123Z,13.40
2018-03-01T10:49:27.083Z,13.90
2018-03-01T10:50:27.066Z,13.40
2018-03-01T10:51:27.014Z,12.30
2018-03-01T10:52:26.965Z,13.90
2018-03-01T10:53:26.932Z,16.00
2018-03-01T10:54:26.910Z,10.10
2018-03-01T10:55:26.889Z,13.30
2018-03-01T10:56:26.808Z,11.50
2018-03-01T10:57:26.776Z,13.20
2018-03-01T10:58:26.742Z,12.00
2018-03-01T10:59:26.744Z,12.40
2018-03-01T11:00:26.653Z,11.70
2018-03-01T11:01:26.632Z,13.60
2018-03-01T11:02:26.574Z,13.60
2018-03-01T11:03:26.535Z,11.70
2018-03-01T11:04:26.489Z,12.70
2018-03-01T11:05:26.455Z,11.50
2018-03-01T11:06:26.451Z,12.40
2018-03-01T11:07:26.387Z,12.20
2018-03-01T11:08:26.332Z,11.40
2018-03-01T11:09:26.298Z,12.10
2018-03-01T11:10:26.254Z,12.70
2018-03-01T11:11:26.250Z,12.30
2018-03-01T11:12:26.175Z,11.60
2018-03-01T11:13:26.137Z,13.60
2018-03-01T11:14:26.098Z,11.40
2018-03-01T11:15:26.052Z,13.40
2018-03-01T11:16:26.011Z,12.40
2018-03-01T11:17:26.000Z,12.00
2018-03-01T11:18:25.927Z,11.70
2018-03-01T11:19:25.924Z,13.40
2018-03-01T11:20:25.845Z,12.90
2018-03-01T11:21:25.844Z,14.20
2018-03-01T11:22:25.758Z,13.60
2018-03-01T11:23:25.730Z,12.60
2018-03-01T11:24:25.677Z,13.50
2018-03-01T11:25:25.637Z,11.70
2018-03-01T11:26:25.605Z,13.00
2018-03-01T11:27:25.572Z,13.80
2018-03-01T11:28:25.513Z,12.90
2018-03-01T11:29:25.466Z,12.80
2018-03-01T11:30:25.432Z,15.80
2018-03-01T11:31:25.387Z,13.50
2018-03-01T11:32:25.378Z,12.40
2018-03-01T11:33:25.308Z,13.60
2018-03-01T11:34:25.271Z,11.40
2018-03-01T11:35:25.224Z,13.70
2018-03-01T11:36:25.192Z,12.50
2018-03-01T11:37:25.162Z,12.20
2018-03-01T11:38:25.087Z,14.00
2018-03-01T11:39:25.063Z,12.40
2018-03-01T11:40:24.998Z,11.10
2018-03-01T11:41:24.961Z,11.60
2018-03-01T11:42:24.917Z,11.10
2018-03-01T11:43:24.902Z,12.90
2018-03-01T11:44:24.834Z,12.80
2018-03-01T11:45:24.809Z,11.40
2018-03-01T11:46:24.744Z,11.90
2018-03-01T11:47:24.726Z,13.40
2018-03-01T11:48:24.664Z,12.50
2018-03-01T11:49:24.625Z,14.70
2018-03-01T11:50:24.572Z,12.90
2018-03-01T11:51:24.535Z,11.60
2018-03-01T11:52:24.490Z,13.30
2018-03-01T11:53:24.472Z,12.20
2018-03-01T11:54:24.406Z,12.60
2018-03-01T11:55:24.364Z,12.70
2018-03-01T11:56:24.313Z,13.10
2018-03-01T11:57:24.273Z,11.10
2018-03-01T11:58:24.268Z,14.90
2018-03-01T11:59:24.194Z,12.00
2018-03-01T12:00:24.144Z,12.30
2018-03-01T12:01:24.102Z,12.30
2018-03-01T12:02:24.067Z,14.20
2018-03-01T12:03:24.049Z,13.30
2018-03-01T12:04:23.976Z,13.80
2018-03-01T12:05:23.940Z,12.40
2018-03-01T12:06:23.888Z,13.70
2018-03-01T12:07:23.852Z,12.10
2018-03-01T12:08:23.804Z,14.10
2018-03-01T12:09:23.791Z,12.80
2018-03-01T12:10:23.727Z,11.40
2018-03-01T12:11:23.687Z,12.20
2018-03-01T12:12:23.638Z,11.50
2018-03-01T12:13:23.603Z,12.30
2018-03-01T12:14:23.582Z,11.80
2018-03-01T12:15:23.518Z,13.00
2018-03-01T12:16:23.480Z,11.60
2018-03-01T12:17:23.431Z,12.80
2018-03-01T12:18:23.391Z,13.80
2018-03-01T12:19:23.374Z,11.20
2018-03-01T12:20:23.308Z,12.90
2018-03-01T12:21:23.269Z,11.80
2018-03-01T12:22:23.223Z,12.40
2018-03-01T12:23:23.196Z,12.40
2018-03-01T12:24:23.169Z,14.30
2018-03-01T12:25:23.107Z,10.80
2018-03-01T12:26:23.068Z,12.00
2018-03-01T12:27:23.052Z,13.40
2018-03-01T12:28:22.980Z,12.70
2018-03-01T12:29:22.966Z,10.30
2018-03-01T12:30:22.903Z,13.00
2018-03-01T12:31:22.866Z,11.80
2018-03-01T12:32:22.816Z,11.70
2018-03-01T12:33:22.773Z,12.20
2018-03-01T12:34:22.738Z,12.00
2018-03-01T12:35:22.725Z,15.20
2018-03-01T12:36:22.656Z,12.60
2018-03-01T12:37:22.619Z,11.60
2018-03-01T12:38:22.602Z,11.80
2018-03-01T12:39:22.543Z,13.80
2018-03-01T12:40:22.525Z,11.90
2018-03-01T12:41:22.457Z,12.60
2018-03-01T12:42:22.418Z,11.40
2018-03-01T12:43:22.371Z,12.40
2018-03-01T12:44:22.339Z,12.60
2018-03-01T12:45:22.316Z,12.80
2018-03-01T12:46:22.255Z,11.70
2018-03-01T12:47:22.220Z,13.20
2018-03-01T12:48:22.185Z,12.70
2018-03-01T12:49:22.145Z,11.20
2018-03-01T12:50:22.126Z,12.60
2018-03-01T12:51:22.051Z,13.40
2018-03-01T12:52:22.016Z,12.20